createdAt,value
2023-01-26T00:00:35.289Z,25.52
2023-01-26T00:02:40.411Z,24.67
2023-01-26T00:04:45.442Z,27.45
2023-01-26T00:06:50.772Z,29.02
2023-01-26T00:08:57.578Z,27.88
2023-01-26T00:11:06.928Z,23.80
2023-01-26T00:13:13.869Z,22.70
2023-01-26T00:15:18.937Z,24.85
2023-01-26T00:17:30.036Z,27.98
2023-01-26T00:19:34.942Z,33.17
2023-01-26T00:21:39.870Z,25.63
2023-01-26T00:23:45.210Z,26.73
2023-01-26T00:25:50.091Z,29.70
2023-01-26T00:27:57.573Z,30.73
2023-01-26T00:30:02.460Z,32.38
2023-01-26T00:32:09.149Z,32.35
2023-01-26T00:34:14.000Z,26.73
2023-01-26T00:36:20.512Z,29.10
2023-01-26T00:38:26.550Z,31.98
2023-01-26T00:40:31.599Z,34.50
2023-01-26T00:42:36.474Z,32.10
2023-01-26T00:44:45.766Z,36.50
2023-01-26T00:46:51.589Z,32.25
2023-01-26T00:48:56.464Z,33.25
2023-01-26T00:51:01.353Z,33.95
2023-01-26T00:53:06.395Z,34.78
2023-01-26T00:55:11.861Z,38.65
2023-01-26T00:57:18.842Z,34.95
2023-01-26T00:59:23.849Z,32.22
2023-01-26T01:01:31.261Z,31.25
2023-01-26T01:03:36.077Z,30.55
2023-01-26T01:05:40.916Z,31.95
2023-01-26T01:07:45.747Z,29.27
2023-01-26T01:09:50.549Z,30.55
2023-01-26T01:11:55.589Z,29.88
2023-01-26T01:14:00.737Z,28.88
2023-01-26T01:18:15.235Z,30.23
2023-01-26T01:20:20.438Z,30.80
2023-01-26T01:24:30.706Z,29.97
2023-01-26T01:26:35.616Z,25.15
2023-01-26T01:28:40.855Z,26.73
2023-01-26T01:32:51.776Z,29.25
2023-01-26T01:34:59.202Z,27.98
2023-01-26T01:37:04.293Z,28.92
2023-01-26T01:39:09.113Z,29.13
2023-01-26T01:41:14.843Z,29.05
2023-01-26T01:43:19.792Z,28.10
2023-01-26T01:45:44.127Z,29.00
2023-01-26T01:47:49.264Z,27.17
2023-01-26T01:49:56.218Z,26.25
2023-01-26T01:52:07.960Z,26.05
2023-01-26T01:54:15.596Z,26.17
2023-01-26T01:56:26.221Z,31.63
2023-01-26T01:58:34.223Z,30.98
2023-01-26T02:00:39.110Z,30.33
2023-01-26T02:03:05.933Z,29.75
2023-01-26T02:05:23.980Z,26.45
2023-01-26T02:07:33.321Z,26.15
2023-01-26T02:09:53.791Z,26.77
2023-01-26T02:12:01.539Z,26.23
2023-01-26T02:14:09.616Z,29.08
2023-01-26T02:16:14.809Z,28.40
2023-01-26T02:20:32.181Z,30.83
2023-01-26T02:22:48.577Z,28.80
2023-01-26T02:24:57.673Z,27.33
2023-01-26T02:27:05.609Z,29.77
2023-01-26T02:29:14.437Z,26.48
2023-01-26T02:31:22.711Z,23.98
2023-01-26T02:33:29.925Z,28.33
2023-01-26T02:35:38.543Z,29.38
2023-01-26T02:37:44.006Z,31.52
2023-01-26T02:39:56.489Z,31.92
2023-01-26T02:42:17.772Z,29.50
2023-01-26T02:44:23.118Z,27.42
2023-01-26T02:46:28.889Z,25.15
2023-01-26T02:48:46.415Z,27.10
2023-01-26T02:50:51.348Z,30.23
2023-01-26T02:52:56.241Z,26.50
2023-01-26T02:55:14.891Z,28.33
2023-01-26T02:57:22.544Z,25.33
2023-01-26T02:59:29.703Z,27.95
2023-01-26T03:01:34.642Z,26.75
2023-01-26T03:03:45.793Z,28.98
2023-01-26T03:05:54.993Z,27.63
2023-01-26T03:08:01.242Z,27.63
2023-01-26T03:10:13.948Z,30.52
2023-01-26T03:12:18.856Z,28.20
2023-01-26T03:14:27.757Z,27.33
2023-01-26T03:16:32.731Z,29.13
2023-01-26T03:18:51.047Z,25.73
2023-01-26T03:21:14.324Z,21.77
2023-01-26T03:23:32.685Z,23.08
2023-01-26T03:25:51.402Z,26.65
2023-01-26T03:27:56.402Z,28.52
2023-01-26T03:30:04.030Z,30.65
2023-01-26T03:32:09.743Z,28.38
2023-01-26T03:34:15.807Z,28.83
2023-01-26T03:36:23.089Z,29.63
2023-01-26T03:38:28.360Z,26.63
2023-01-26T03:40:45.754Z,28.88
2023-01-26T03:43:03.184Z,23.80
2023-01-26T03:45:23.773Z,27.85
2023-01-26T03:47:41.110Z,22.17
2023-01-26T03:49:58.530Z,29.63
2023-01-26T03:52:15.919Z,23.98
2023-01-26T03:54:33.210Z,21.67
2023-01-26T03:56:38.153Z,23.17
2023-01-26T03:58:48.332Z,20.80
2023-01-26T04:03:13.615Z,23.83
2023-01-26T04:05:31.576Z,25.63
2023-01-26T04:07:51.401Z,23.08
2023-01-26T04:09:57.575Z,23.77
2023-01-26T04:12:02.885Z,24.40
2023-01-26T04:14:20.698Z,23.48
2023-01-26T04:16:40.725Z,21.63
2023-01-26T04:18:58.127Z,23.30
2023-01-26T04:21:17.739Z,23.05
2023-01-26T04:23:23.412Z,21.08
2023-01-26T04:25:30.479Z,23.85
2023-01-26T04:27:36.152Z,22.08
2023-01-26T04:29:41.878Z,20.23
2023-01-26T04:31:49.419Z,24.15
2023-01-26T04:33:58.052Z,21.60
2023-01-26T04:36:07.060Z,22.38
2023-01-26T04:38:14.504Z,23.35
2023-01-26T04:40:21.128Z,20.40
2023-01-26T04:42:27.332Z,21.00
2023-01-26T04:44:33.761Z,24.40
2023-01-26T04:46:38.675Z,21.98
2023-01-26T04:48:46.806Z,23.15
2023-01-26T04:50:56.713Z,24.10
2023-01-26T04:53:02.366Z,23.70
2023-01-26T04:55:08.753Z,24.70
2023-01-26T04:57:14.447Z,24.35
2023-01-26T04:59:23.988Z,24.75
2023-01-26T05:01:32.398Z,21.88
2023-01-26T05:03:37.588Z,24.80
2023-01-26T05:05:45.053Z,25.63
2023-01-26T05:07:50.555Z,22.88
2023-01-26T05:09:56.247Z,25.10
2023-01-26T05:12:38.425Z,25.02
2023-01-26T05:14:49.274Z,24.08
2023-01-26T05:17:02.010Z,22.35
2023-01-26T05:19:19.025Z,23.00
2023-01-26T05:21:31.983Z,26.92
2023-01-26T05:23:37.131Z,24.45
2023-01-26T05:26:08.250Z,24.67
2023-01-26T05:28:25.016Z,24.83
2023-01-26T05:30:30.313Z,24.85
2023-01-26T05:32:35.789Z,21.33
2023-01-26T05:34:40.640Z,23.17
2023-01-26T05:38:53.049Z,23.20
2023-01-26T05:41:02.216Z,23.08
2023-01-26T05:43:14.655Z,21.42
2023-01-26T05:45:23.180Z,23.27
2023-01-26T05:47:30.645Z,22.58
2023-01-26T05:49:38.820Z,22.42
2023-01-26T05:51:44.151Z,21.48
2023-01-26T05:55:56.569Z,22.98
2023-01-26T05:58:04.628Z,18.58
2023-01-26T06:00:12.208Z,27.33
2023-01-26T06:02:27.543Z,19.98
2023-01-26T06:04:32.725Z,20.02
2023-01-26T06:06:38.577Z,18.77
2023-01-26T06:09:11.863Z,19.20
2023-01-26T06:11:36.115Z,19.02
2023-01-26T06:13:57.340Z,19.05
2023-01-26T06:16:04.917Z,28.40
2023-01-26T06:18:13.056Z,37.30
2023-01-26T06:20:22.890Z,35.67
2023-01-26T06:22:33.856Z,37.65
2023-01-26T06:24:41.407Z,38.63
2023-01-26T06:26:46.277Z,40.33
2023-01-26T06:28:51.148Z,35.10
2023-01-26T06:31:02.606Z,34.72
2023-01-26T06:33:07.509Z,31.15
2023-01-26T06:35:15.199Z,27.77
2023-01-26T06:37:21.214Z,31.17
2023-01-26T06:39:26.665Z,28.48
2023-01-26T06:41:34.706Z,32.03
2023-01-26T06:43:39.807Z,32.22
2023-01-26T06:45:44.746Z,32.97
2023-01-26T06:47:50.105Z,32.58
2023-01-26T06:49:55.320Z,31.85
2023-01-26T06:52:02.645Z,27.08
2023-01-26T06:54:20.842Z,32.88
2023-01-26T06:56:48.477Z,30.67
2023-01-26T06:59:14.727Z,29.48
2023-01-26T07:01:27.123Z,25.00
2023-01-26T07:03:32.233Z,24.05
2023-01-26T07:05:37.235Z,21.00
2023-01-26T07:07:42.584Z,18.40
2023-01-26T07:09:47.536Z,19.85
2023-01-26T07:11:55.001Z,15.45
2023-01-26T07:14:00.265Z,15.10
2023-01-26T07:16:06.130Z,17.40
2023-01-26T07:18:11.127Z,19.77
2023-01-26T07:20:16.318Z,21.92
2023-01-26T07:24:25.845Z,20.95
2023-01-26T07:26:30.663Z,24.73
2023-01-26T07:28:40.205Z,26.05
2023-01-26T07:30:45.272Z,23.90
2023-01-26T07:32:50.125Z,24.25
2023-01-26T07:34:55.069Z,21.88
2023-01-26T07:36:59.939Z,24.63
2023-01-26T07:39:07.848Z,23.30
2023-01-26T07:41:15.136Z,21.50
2023-01-26T07:43:20.444Z,24.13
2023-01-26T07:45:29.352Z,22.77
2023-01-26T07:47:34.148Z,24.85
2023-01-26T07:49:38.989Z,26.30
2023-01-26T07:51:43.827Z,25.33
2023-01-26T07:53:50.118Z,25.60
2023-01-26T07:55:54.991Z,27.05
2023-01-26T07:58:00.664Z,32.03
2023-01-26T08:00:06.348Z,30.80
2023-01-26T08:02:19.499Z,33.42
2023-01-26T08:04:24.519Z,30.33
2023-01-26T08:06:29.373Z,25.55
2023-01-26T08:10:39.193Z,26.45
2023-01-26T08:12:44.002Z,27.88
2023-01-26T08:14:48.823Z,26.65
2023-01-26T08:16:53.733Z,25.42
2023-01-26T08:19:02.991Z,25.83
2023-01-26T08:21:08.351Z,26.25
2023-01-26T08:23:13.198Z,24.40
2023-01-26T08:25:18.139Z,23.88
2023-01-26T08:27:23.249Z,23.15
2023-01-26T08:29:28.231Z,24.63
2023-01-26T08:31:33.631Z,25.92
2023-01-26T08:33:38.698Z,24.90
2023-01-26T08:37:50.861Z,27.45
2023-01-26T08:39:55.668Z,27.25
2023-01-26T08:42:00.462Z,29.90
2023-01-26T08:46:10.903Z,26.55
2023-01-26T08:48:15.743Z,27.67
2023-01-26T08:50:20.921Z,28.55
2023-01-26T08:54:33.120Z,47.47
2023-01-26T08:56:38.388Z,34.15
2023-01-26T09:00:47.939Z,27.70
2023-01-26T09:02:53.019Z,35.70
2023-01-26T09:04:57.901Z,25.08
2023-01-26T09:07:02.763Z,21.33
2023-01-26T09:09:13.360Z,23.77
2023-01-26T09:11:18.259Z,28.98
2023-01-26T09:13:23.073Z,24.83
2023-01-26T09:15:28.151Z,20.85
2023-01-26T09:19:37.773Z,20.33
2023-01-26T09:21:42.596Z,23.08
2023-01-26T09:23:47.484Z,20.20
2023-01-26T09:25:58.239Z,26.38
2023-01-26T09:28:05.680Z,19.85
2023-01-26T09:30:12.642Z,23.85
2023-01-26T09:32:17.599Z,24.40
2023-01-26T09:34:22.526Z,20.75
2023-01-26T09:36:27.387Z,21.38
2023-01-26T09:38:32.203Z,18.13
2023-01-26T09:40:46.194Z,21.00
2023-01-26T09:43:05.334Z,18.67
2023-01-26T09:45:23.448Z,21.13
2023-01-26T09:47:35.333Z,22.00
2023-01-26T09:49:48.545Z,17.48
2023-01-26T09:52:00.359Z,16.52
2023-01-26T09:54:12.535Z,16.35
2023-01-26T09:56:22.970Z,21.20
2023-01-26T09:58:37.224Z,19.00
2023-01-26T10:00:49.074Z,20.38
2023-01-26T10:03:06.440Z,17.20
2023-01-26T10:05:19.760Z,19.05
2023-01-26T10:07:24.688Z,18.75
2023-01-26T10:09:35.127Z,20.50
2023-01-26T10:11:44.131Z,20.05
2023-01-26T10:13:57.664Z,19.92
2023-01-26T10:16:05.227Z,20.17
2023-01-26T10:18:14.911Z,22.48
2023-01-26T10:20:30.737Z,21.88
2023-01-26T10:22:43.723Z,22.02
2023-01-26T10:24:51.877Z,21.00
2023-01-26T10:27:00.227Z,19.38
2023-01-26T10:29:07.710Z,23.00
2023-01-26T10:31:18.112Z,27.35
2023-01-26T10:33:35.467Z,22.75
2023-01-26T10:35:40.531Z,23.10
2023-01-26T10:37:45.387Z,26.05
2023-01-26T10:40:04.957Z,24.55
2023-01-26T10:42:21.687Z,26.67
2023-01-26T10:44:35.001Z,25.83
2023-01-26T10:46:41.891Z,23.40
2023-01-26T10:48:54.637Z,24.13
2023-01-26T10:51:18.525Z,25.17
2023-01-26T10:53:28.437Z,23.70
2023-01-26T10:55:36.486Z,23.30
2023-01-26T10:57:42.955Z,22.75
2023-01-26T10:59:53.699Z,23.98
2023-01-26T11:02:00.428Z,22.70
2023-01-26T11:04:10.368Z,22.10
2023-01-26T11:06:18.447Z,26.50
2023-01-26T11:08:35.623Z,23.17
2023-01-26T11:10:41.985Z,28.27
2023-01-26T11:12:46.783Z,28.25
2023-01-26T11:15:07.971Z,27.77
2023-01-26T11:17:23.246Z,26.30
2023-01-26T11:19:44.735Z,27.85
2023-01-26T11:21:55.236Z,26.98
2023-01-26T11:24:06.635Z,25.45
2023-01-26T11:26:45.790Z,31.88
2023-01-26T11:29:04.982Z,28.67
2023-01-26T11:31:30.647Z,29.65
2023-01-26T11:33:44.781Z,26.63
2023-01-26T11:35:57.034Z,23.85
2023-01-26T11:38:14.425Z,29.98
2023-01-26T11:40:29.232Z,28.02
2023-01-26T11:42:43.365Z,25.48
2023-01-26T11:45:06.055Z,24.67
2023-01-26T11:47:25.901Z,24.70
2023-01-26T11:49:47.688Z,24.35
2023-01-26T11:52:04.272Z,26.27
2023-01-26T11:54:26.890Z,22.80
2023-01-26T11:56:43.954Z,24.33
2023-01-26T11:58:55.082Z,24.10
2023-01-26T12:01:03.396Z,24.33
2023-01-26T12:03:20.874Z,24.92
2023-01-26T12:05:29.826Z,24.00
2023-01-26T12:07:51.616Z,23.80
2023-01-26T12:09:56.816Z,25.90
2023-01-26T12:12:06.916Z,25.77
2023-01-26T12:14:21.485Z,23.10
2023-01-26T12:16:38.261Z,24.50
2023-01-26T12:19:02.031Z,25.17
2023-01-26T12:21:15.206Z,22.05
2023-01-26T12:23:33.532Z,23.13
2023-01-26T12:25:40.354Z,23.52
2023-01-26T12:27:50.771Z,25.38
2023-01-26T12:30:04.267Z,25.52
2023-01-26T12:32:13.993Z,22.58
2023-01-26T12:34:27.916Z,26.75
2023-01-26T12:36:48.653Z,21.65
2023-01-26T12:39:04.325Z,24.77
2023-01-26T12:41:16.268Z,21.85
2023-01-26T12:43:32.391Z,24.58
2023-01-26T12:45:42.131Z,20.45
2023-01-26T12:47:52.207Z,24.00
2023-01-26T12:50:06.830Z,22.13
2023-01-26T12:52:19.987Z,21.88
2023-01-26T12:54:34.365Z,22.23
2023-01-26T12:56:43.875Z,21.35
2023-01-26T12:58:52.947Z,23.35
2023-01-26T13:01:05.052Z,20.75
2023-01-26T13:03:20.011Z,26.00
2023-01-26T13:05:32.836Z,22.67
2023-01-26T13:07:39.881Z,23.15
2023-01-26T13:10:12.918Z,25.25
2023-01-26T13:12:47.926Z,25.17
2023-01-26T13:15:04.998Z,21.48
2023-01-26T13:17:55.533Z,19.10
2023-01-26T13:20:00.447Z,24.52
2023-01-26T13:22:40.925Z,27.85
2023-01-26T13:24:48.795Z,21.80
2023-01-26T13:27:01.257Z,26.35
2023-01-26T13:29:32.036Z,25.58
2023-01-26T13:31:37.242Z,31.48
2023-01-26T13:35:48.779Z,35.50
2023-01-26T13:38:00.882Z,35.42
2023-01-26T13:40:17.151Z,38.63
2023-01-26T13:42:28.622Z,34.38
2023-01-26T13:44:42.978Z,32.10
2023-01-26T13:46:53.981Z,32.65
2023-01-26T13:48:59.697Z,34.63
2023-01-26T13:51:05.658Z,30.33
2023-01-26T13:53:35.515Z,33.03
2023-01-26T13:55:44.614Z,35.42
2023-01-26T13:57:49.967Z,37.17
2023-01-26T13:59:57.608Z,36.78
2023-01-26T14:02:02.975Z,36.88
2023-01-26T14:04:09.694Z,36.47
2023-01-26T14:06:19.611Z,36.15
2023-01-26T14:08:25.165Z,38.42
2023-01-26T14:10:33.840Z,38.63
2023-01-26T14:12:45.351Z,34.67
2023-01-26T14:14:55.532Z,40.50
2023-01-26T14:17:01.768Z,36.05
2023-01-26T14:19:16.828Z,35.92
2023-01-26T14:21:24.228Z,35.97
2023-01-26T14:23:31.620Z,35.58
2023-01-26T14:25:39.895Z,36.30
2023-01-26T14:27:45.516Z,34.90
2023-01-26T14:29:50.651Z,33.63
2023-01-26T14:34:02.502Z,35.03
2023-01-26T14:36:08.746Z,33.75
2023-01-26T14:38:22.511Z,37.20
2023-01-26T14:40:28.385Z,36.47
2023-01-26T14:42:35.890Z,33.88
2023-01-26T14:44:40.773Z,31.92
2023-01-26T14:46:57.884Z,35.05
2023-01-26T14:49:07.560Z,35.75
2023-01-26T14:51:22.184Z,27.90
2023-01-26T14:53:28.552Z,28.00
2023-01-26T14:55:38.036Z,31.42
2023-01-26T14:57:45.465Z,24.75
2023-01-26T14:59:53.154Z,26.77
2023-01-26T15:02:07.257Z,24.80
2023-01-26T15:04:25.751Z,23.75
2023-01-26T15:06:32.120Z,24.35
2023-01-26T15:08:37.917Z,28.55
2023-01-26T15:10:44.857Z,25.05
2023-01-26T15:12:56.802Z,26.17
2023-01-26T15:15:03.356Z,25.83
2023-01-26T15:17:08.931Z,28.75
2023-01-26T15:19:26.213Z,23.73
2023-01-26T15:21:39.611Z,23.75
2023-01-26T15:23:45.937Z,23.13
2023-01-26T15:25:51.381Z,21.38
2023-01-26T15:28:01.779Z,25.13
2023-01-26T15:30:08.206Z,25.48
2023-01-26T15:32:32.451Z,28.00
2023-01-26T15:34:39.145Z,30.50
2023-01-26T15:36:52.300Z,27.90
2023-01-26T15:39:02.956Z,25.77
2023-01-26T15:41:11.794Z,27.00
2023-01-26T15:43:21.060Z,28.75
2023-01-26T15:45:30.174Z,25.85
2023-01-26T15:47:35.246Z,24.73
2023-01-26T15:49:40.140Z,23.25
2023-01-26T15:51:45.132Z,22.15
2023-01-26T15:53:50.120Z,22.95
2023-01-26T15:55:56.391Z,23.63
2023-01-26T15:58:01.270Z,24.77
2023-01-26T16:00:10.135Z,25.83
2023-01-26T16:02:17.963Z,23.05
2023-01-26T16:04:23.372Z,24.02
2023-01-26T16:06:29.378Z,22.13
2023-01-26T16:08:34.174Z,25.00
2023-01-26T16:10:40.621Z,25.42
2023-01-26T16:12:45.488Z,27.88
2023-01-26T16:14:50.442Z,24.08
2023-01-26T16:16:57.968Z,24.02
2023-01-26T16:19:03.182Z,24.73
2023-01-26T16:23:23.076Z,25.33
2023-01-26T16:25:30.343Z,26.02
2023-01-26T16:27:35.188Z,23.67
2023-01-26T16:29:40.074Z,25.02
2023-01-26T16:31:45.324Z,28.55
2023-01-26T16:35:57.930Z,24.30
2023-01-26T16:38:04.284Z,24.83
2023-01-26T16:40:10.951Z,24.40
2023-01-26T16:42:21.421Z,22.55
2023-01-26T16:44:26.295Z,23.40
2023-01-26T16:46:33.092Z,23.48
2023-01-26T16:48:38.033Z,21.80
2023-01-26T16:50:46.752Z,25.02
2023-01-26T16:52:51.775Z,25.38
2023-01-26T16:54:56.653Z,24.75
2023-01-26T16:57:01.522Z,26.90
2023-01-26T16:59:06.749Z,21.98
2023-01-26T17:01:19.783Z,19.63
2023-01-26T17:03:24.691Z,27.05
2023-01-26T17:05:31.249Z,25.52
2023-01-26T17:07:38.772Z,24.83
2023-01-26T17:09:43.651Z,20.88
2023-01-26T17:11:48.447Z,23.67
2023-01-26T17:13:53.344Z,25.63
2023-01-26T17:15:59.837Z,22.13
2023-01-26T17:18:04.717Z,26.13
2023-01-26T17:20:18.964Z,28.42
2023-01-26T17:22:24.564Z,35.33
2023-01-26T17:24:32.124Z,29.60
2023-01-26T17:26:37.007Z,27.05
2023-01-26T17:28:41.974Z,29.20
2023-01-26T17:30:46.817Z,27.17
2023-01-26T17:32:51.678Z,28.63
2023-01-26T17:34:57.591Z,33.08
2023-01-26T17:37:02.923Z,29.75
2023-01-26T17:39:07.936Z,26.10
2023-01-26T17:41:15.456Z,22.52
2023-01-26T17:43:22.040Z,23.85
2023-01-26T17:45:26.954Z,26.20
2023-01-26T17:49:38.991Z,24.00
2023-01-26T17:51:46.901Z,25.65
2023-01-26T17:53:52.583Z,23.30
2023-01-26T17:55:57.501Z,21.55
2023-01-26T17:58:05.539Z,26.60
2023-01-26T18:00:12.211Z,26.05
2023-01-26T18:02:17.800Z,24.42
2023-01-26T18:06:27.292Z,25.67
2023-01-26T18:08:32.596Z,27.75
2023-01-26T18:10:37.470Z,27.70
2023-01-26T18:12:42.412Z,35.42
2023-01-26T18:14:50.139Z,36.78
2023-01-26T18:16:55.068Z,29.83
2023-01-26T18:19:01.690Z,28.58
2023-01-26T18:21:14.297Z,27.10
2023-01-26T18:23:19.459Z,31.88
2023-01-26T18:27:28.981Z,28.25
2023-01-26T18:29:33.905Z,27.20
2023-01-26T18:31:43.598Z,27.75
2023-01-26T18:33:49.267Z,23.90
2023-01-26T18:35:54.121Z,24.42
2023-01-26T18:37:58.996Z,23.88
2023-01-26T18:40:04.306Z,24.02
2023-01-26T18:42:09.156Z,23.15
2023-01-26T18:44:13.979Z,24.15
2023-01-26T18:46:18.793Z,27.75
2023-01-26T18:48:26.209Z,22.90
2023-01-26T18:50:31.109Z,25.60
2023-01-26T18:52:35.909Z,26.75
2023-01-26T18:54:40.690Z,22.02
2023-01-26T18:56:45.833Z,23.33
2023-01-26T19:00:55.322Z,24.65
2023-01-26T19:03:00.172Z,21.38
2023-01-26T19:05:08.591Z,20.38
2023-01-26T19:07:15.427Z,21.83
2023-01-26T19:09:20.383Z,19.02
2023-01-26T19:11:25.202Z,18.40
2023-01-26T19:13:29.988Z,19.65
2023-01-26T19:15:34.885Z,19.15
2023-01-26T19:17:41.872Z,16.35
2023-01-26T19:19:47.741Z,14.48
2023-01-26T19:21:55.292Z,15.25
2023-01-26T19:24:02.639Z,15.35
2023-01-26T19:26:12.407Z,15.02
2023-01-26T19:28:17.350Z,13.07
2023-01-26T19:30:22.228Z,13.90
2023-01-26T19:32:27.033Z,15.60
2023-01-26T19:34:32.289Z,15.77
2023-01-26T19:36:38.975Z,17.75
2023-01-26T19:38:46.406Z,15.93
2023-01-26T19:40:52.815Z,16.40
2023-01-26T19:42:57.582Z,18.67
2023-01-26T19:45:02.415Z,19.73
2023-01-26T19:47:07.299Z,18.42
2023-01-26T19:49:13.626Z,14.88
2023-01-26T19:51:20.363Z,14.23
2023-01-26T19:53:25.325Z,15.18
2023-01-26T19:55:34.907Z,17.13
2023-01-26T19:57:39.814Z,14.38
2023-01-26T19:59:44.596Z,15.30
2023-01-26T20:01:49.471Z,14.23
2023-01-26T20:03:56.684Z,14.75
2023-01-26T20:06:04.419Z,14.80
2023-01-26T20:08:09.232Z,15.25
2023-01-26T20:10:14.661Z,13.35
2023-01-26T20:12:22.371Z,15.52
2023-01-26T20:14:27.212Z,14.18
2023-01-26T20:16:34.374Z,13.48
2023-01-26T20:18:40.243Z,13.90
2023-01-26T20:20:45.034Z,13.00
2023-01-26T20:22:50.043Z,12.93
2023-01-26T20:27:00.649Z,12.95
2023-01-26T20:29:08.454Z,11.73
2023-01-26T20:31:16.797Z,14.13
2023-01-26T20:33:21.881Z,15.15
2023-01-26T20:35:26.777Z,10.50
2023-01-26T20:37:31.781Z,13.20
2023-01-26T20:41:41.197Z,11.63
2023-01-26T20:43:59.834Z,10.95
2023-01-26T20:46:11.743Z,10.82
2023-01-26T20:48:16.752Z,11.55
2023-01-26T20:50:22.020Z,12.25
2023-01-26T20:52:27.880Z,12.85
2023-01-26T20:54:32.652Z,11.60
2023-01-26T20:56:38.394Z,12.07
2023-01-26T20:58:44.083Z,11.82
2023-01-26T21:00:49.083Z,11.80
2023-01-26T21:02:56.725Z,11.48
2023-01-26T21:05:01.579Z,11.77
2023-01-26T21:07:06.434Z,10.43
2023-01-26T21:09:12.963Z,10.45
2023-01-26T21:11:20.051Z,10.35
2023-01-26T21:13:25.034Z,10.88
2023-01-26T21:15:29.847Z,11.82
2023-01-26T21:17:34.722Z,11.52
2023-01-26T21:19:42.147Z,12.68
2023-01-26T21:21:47.215Z,13.50
2023-01-26T21:23:52.514Z,11.98
2023-01-26T21:26:01.068Z,14.18
2023-01-26T21:28:05.834Z,13.48
2023-01-26T21:30:12.557Z,16.17
2023-01-26T21:32:17.646Z,15.95
2023-01-26T21:34:22.587Z,13.68
2023-01-26T21:36:32.687Z,14.38
2023-01-26T21:38:39.539Z,15.45
2023-01-26T21:40:44.399Z,14.57
2023-01-26T21:42:49.294Z,15.90
2023-01-26T21:45:06.532Z,12.40
2023-01-26T21:47:11.377Z,13.55
2023-01-26T21:49:17.223Z,14.27
2023-01-26T21:51:35.159Z,12.43
2023-01-26T21:53:42.611Z,12.85
2023-01-26T21:55:49.460Z,13.07
2023-01-26T21:58:06.779Z,10.63
2023-01-26T22:00:13.418Z,10.85
2023-01-26T22:02:18.404Z,11.07
2023-01-26T22:04:26.658Z,10.15
2023-01-26T22:06:32.600Z,11.20
2023-01-26T22:08:37.402Z,10.65
2023-01-26T22:10:44.811Z,10.63
2023-01-26T22:12:49.639Z,10.00
2023-01-26T22:14:54.728Z,11.80
2023-01-26T22:19:04.329Z,11.65
2023-01-26T22:21:09.733Z,11.32
2023-01-26T22:23:14.698Z,13.98
2023-01-26T22:25:20.377Z,12.15
2023-01-26T22:27:27.742Z,12.40
2023-01-26T22:29:32.670Z,10.07
2023-01-26T22:31:37.834Z,13.05
2023-01-26T22:35:47.238Z,11.07
2023-01-26T22:37:52.116Z,12.20
2023-01-26T22:39:56.911Z,11.20
2023-01-26T22:42:02.129Z,11.40
2023-01-26T22:46:14.486Z,13.25
2023-01-26T22:50:23.958Z,13.07
2023-01-26T22:52:28.690Z,12.05
2023-01-26T22:54:33.549Z,13.15
2023-01-26T22:56:38.424Z,11.68
2023-01-26T22:58:57.063Z,11.05
2023-01-26T23:01:14.265Z,14.35
2023-01-26T23:03:19.332Z,12.63
2023-01-26T23:05:24.130Z,12.57
2023-01-26T23:07:29.002Z,12.65
2023-01-26T23:09:33.847Z,15.30
2023-01-26T23:11:39.476Z,11.63
2023-01-26T23:13:45.459Z,12.13
2023-01-26T23:15:50.329Z,11.70
2023-01-26T23:17:57.689Z,12.13
2023-01-26T23:20:02.582Z,9.98
2023-01-26T23:22:07.565Z,11.30
2023-01-26T23:24:12.568Z,10.50
2023-01-26T23:26:17.624Z,11.70
2023-01-26T23:28:24.710Z,14.05
2023-01-26T23:30:29.568Z,13.10
2023-01-26T23:32:34.446Z,10.73
2023-01-26T23:34:41.855Z,15.77
2023-01-26T23:36:46.724Z,11.57
2023-01-26T23:38:51.814Z,13.23
2023-01-26T23:43:15.716Z,12.77
2023-01-26T23:45:21.860Z,13.43
2023-01-26T23:47:26.744Z,13.35
2023-01-26T23:49:31.695Z,14.35
2023-01-26T23:51:39.065Z,11.55
2023-01-26T23:53:44.093Z,11.30
2023-01-26T23:55:49.731Z,13.88
2023-01-26T23:57:54.599Z,15.75
2023-01-26T23:59:59.391Z,11.85
